sensor_id;sensor_type;location;lat;lon;timestamp;pressure;altitude;pressure_sealevel;temperature
74485;BMP280;62942;52.462;10.846;2022-12-31T00:00:08;99710;;;
74485;BMP280;62942;52.462;10.846;2022-12-31T00:01:18;99720;;;
74485;BMP280;62942;52.462;10.846;2022-12-31T00:02:17;99710;;;
74485;BMP280;62942;52.462;10.846;2022-12-31T00:03:17;99710;;;
74485;BMP280;62942;52.462;10.846;2022-12-31T00:04:27;99710;;;
74485;BMP280;62942;52.462;10.846;2022-12-31T00:05:28;99710;;;
74485;BMP280;62942;52.462;10.846;2022-12-31T00:06:37;99700;;;
74485;BMP280;62942;52.462;10.846;2022-12-31T00:07:37;99710;;;
74485;BMP280;62942;52.462;10.846;2022-12-31T00:08:47;99700;;;
74485;BMP280;62942;52.462;10.846;2022-12-31T00:09:47;99700;;;
74485;BMP280;62942;52.462;10.846;2022-12-31T00:10:57;99710;;;
74485;BMP280;62942;52.462;10.846;2022-12-31T00:12:07;99710;;;
74485;BMP280;62942;52.462;10.846;2022-12-31T00:13:08;99710;;;
74485;BMP280;62942;52.462;10.846;2022-12-31T00:14:17;99710;;;
74485;BMP280;62942;52.462;10.846;2022-12-31T00:15:17;99710;;;
74485;BMP280;62942;52.462;10.846;2022-12-31T00:16:29;99710;;;
74485;BMP280;62942;52.462;10.846;2022-12-31T00:17:28;99710;;;
74485;BMP280;62942;52.462;10.846;2022-12-31T00:18:37;99710;;;
74485;BMP280;62942;52.462;10.846;2022-12-31T00:19:47;99710;;;
74485;BMP280;62942;52.462;10.846;2022-12-31T00:20:57;99710;;;
74485;BMP280;62942;52.462;10.846;2022-12-31T00:21:57;99700;;;
74485;BMP280;62942;52.462;10.846;2022-12-31T00:23:08;99710;;;
74485;BMP280;62942;52.462;10.846;2022-12-31T00:24:17;99710;;;
74485;BMP280;62942;52.462;10.846;2022-12-31T00:25:17;99700;;;
74485;BMP280;62942;52.462;10.846;2022-12-31T00:26:28;99710;;;
74485;BMP280;62942;52.462;10.846;2022-12-31T00:27:28;99720;;;
74485;BMP280;62942;52.462;10.846;2022-12-31T00:28:37;99730;;;
74485;BMP280;62942;52.462;10.846;2022-12-31T00:29:37;99720;;;
74485;BMP280;62942;52.462;10.846;2022-12-31T00:30:47;99730;;;
74485;BMP280;62942;52.462;10.846;2022-12-31T00:31:57;99730;;;
74485;BMP280;62942;52.462;10.846;2022-12-31T00:32:57;99730;;;
74485;BMP280;62942;52.462;10.846;2022-12-31T00:33:57;99730;;;
74485;BMP280;62942;52.462;10.846;2022-12-31T00:35:07;99730;;;
74485;BMP280;62942;52.462;10.846;2022-12-31T00:36:19;99730;;;
74485;BMP280;62942;52.462;10.846;2022-12-31T00:37:17;99730;;;
74485;BMP280;62942;52.462;10.846;2022-12-31T00:38:17;99730;;;
74485;BMP280;62942;52.462;10.846;2022-12-31T00:39:27;99730;;;
74485;BMP280;62942;52.462;10.846;2022-12-31T00:40:27;99730;;;
74485;BMP280;62942;52.462;10.846;2022-12-31T00:41:28;99740;;;
74485;BMP280;62942;52.462;10.846;2022-12-31T00:42:27;99730;;;
74485;BMP280;62942;52.462;10.846;2022-12-31T00:43:37;99750;;;
74485;BMP280;62942;52.462;10.846;2022-12-31T00:44:37;99750;;;
74485;BMP280;62942;52.462;10.846;2022-12-31T00:45:47;99750;;;
74485;BMP280;62942;52.462;10.846;2022-12-31T00:46:47;99750;;;
74485;BMP280;62942;52.462;10.846;2022-12-31T00:47:57;99740;;;
74485;BMP280;62942;52.462;10.846;2022-12-31T00:48:57;99730;;;
74485;BMP280;62942;52.462;10.846;2022-12-31T00:50:07;99730;;;
74485;BMP280;62942;52.462;10.846;2022-12-31T00:51:19;99730;;;
74485;BMP280;62942;52.462;10.846;2022-12-31T00:52:17;99740;;;
74485;BMP280;62942;52.462;10.846;2022-12-31T00:53:27;99740;;;
74485;BMP280;62942;52.462;10.846;2022-12-31T00:54:27;99730;;;
74485;BMP280;62942;52.462;10.846;2022-12-31T00:55:37;99730;;;
74485;BMP280;62942;52.462;10.846;2022-12-31T00:56:47;99750;;;
74485;BMP280;62942;52.462;10.846;2022-12-31T00:57:47;99750;;;
74485;BMP280;62942;52.462;10.846;2022-12-31T00:58:47;99750;;;
74485;BMP280;62942;52.462;10.846;2022-12-31T00:59:57;99740;;;
74485;BMP280;62942;52.462;10.846;2022-12-31T01:01:08;99740;;;
74485;BMP280;62942;52.462;10.846;2022-12-31T01:02:07;99740;;;
74485;BMP280;62942;52.462;10.846;2022-12-31T01:03:07;99740;;;
74485;BMP280;62942;52.462;10.846;2022-12-31T01:04:18;99740;;;
74485;BMP280;62942;52.462;10.846;2022-12-31T01:05:17;99740;;;
74485;BMP280;62942;52.462;10.846;2022-12-31T01:06:27;99750;;;
74485;BMP280;62942;52.462;10.846;2022-12-31T01:07:27;99750;;;
74485;BMP280;62942;52.462;10.846;2022-12-31T01:08:37;99750;;;
74485;BMP280;62942;52.462;10.846;2022-12-31T01:09:37;99750;;;
74485;BMP280;62942;52.462;10.846;2022-12-31T01:10:47;99750;;;
74485;BMP280;62942;52.462;10.846;2022-12-31T01:11:57;99750;;;
74485;BMP280;62942;52.462;10.846;2022-12-31T01:12:58;99750;;;
74485;BMP280;62942;52.462;10.846;2022-12-31T01:13:58;99750;;;
74485;BMP280;62942;52.462;10.846;2022-12-31T01:14:57;99750;;;
74485;BMP280;62942;52.462;10.846;2022-12-31T01:16:07;99750;;;
74485;BMP280;62942;52.462;10.846;2022-12-31T01:17:17;99750;;;
74485;BMP280;62942;52.462;10.846;2022-12-31T01:18:17;99760;;;
74485;BMP280;62942;52.462;10.846;2022-12-31T01:19:28;99760;;;
74485;BMP280;62942;52.462;10.846;2022-12-31T01:20:38;99750;;;
74485;BMP280;62942;52.462;10.846;2022-12-31T01:21:47;99750;;;
74485;BMP280;62942;52.462;10.846;2022-12-31T01:22:47;99750;;;
74485;BMP280;62942;52.462;10.846;2022-12-31T01:23:57;99750;;;
74485;BMP280;62942;52.462;10.846;2022-12-31T01:24:57;99750;;;
74485;BMP280;62942;52.462;10.846;2022-12-31T01:26:08;99760;;;
74485;BMP280;62942;52.462;10.846;2022-12-31T01:27:07;99760;;;
74485;BMP280;62942;52.462;10.846;2022-12-31T01:28:17;99760;;;
74485;BMP280;62942;52.462;10.846;2022-12-31T01:29:17;99760;;;
74485;BMP280;62942;52.462;10.846;2022-12-31T01:30:17;99760;;;
74485;BMP280;62942;52.462;10.846;2022-12-31T01:31:18;99760;;;
74485;BMP280;62942;52.462;10.846;2022-12-31T01:32:27;99760;;;
74485;BMP280;62942;52.462;10.846;2022-12-31T01:33:27;99770;;;
74485;BMP280;62942;52.462;10.846;2022-12-31T01:34:27;99760;;;
74485;BMP280;62942;52.462;10.846;2022-12-31T01:35:37;99760;;;
74485;BMP280;62942;52.462;10.846;2022-12-31T01:36:37;99770;;;
74485;BMP280;62942;52.462;10.846;2022-12-31T01:37:47;99770;;;
74485;BMP280;62942;52.462;10.846;2022-12-31T01:38:58;99780;;;
74485;BMP280;62942;52.462;10.846;2022-12-31T01:40:07;99780;;;
74485;BMP280;62942;52.462;10.846;2022-12-31T01:41:08;99770;;;
74485;BMP280;62942;52.462;10.846;2022-12-31T01:42:08;99790;;;
74485;BMP280;62942;52.462;10.846;2022-12-31T01:43:10;99780;;;
74485;BMP280;62942;52.462;10.846;2022-12-31T01:45:08;99780;;;
74485;BMP280;62942;52.462;10.846;2022-12-31T01:45:12;99780;;;
74485;BMP280;62942;52.462;10.846;2022-12-31T01:46:20;99790;;;
74485;BMP280;62942;52.462;10.846;2022-12-31T01:47:30;99780;;;
74485;BMP280;62942;52.462;10.846;2022-12-31T01:48:27;99780;;;
74485;BMP280;62942;52.462;10.846;2022-12-31T01:49:38;99780;;;
74485;BMP280;62942;52.462;10.846;2022-12-31T01:50:47;99780;;;
74485;BMP280;62942;52.462;10.846;2022-12-31T01:52:00;99780;;;
74485;BMP280;62942;52.462;10.846;2022-12-31T01:52:58;99780;;;
74485;BMP280;62942;52.462;10.846;2022-12-31T01:54:07;99780;;;
74485;BMP280;62942;52.462;10.846;2022-12-31T01:55:08;99780;;;
74485;BMP280;62942;52.462;10.846;2022-12-31T01:56:18;99780;;;
74485;BMP280;62942;52.462;10.846;2022-12-31T01:57:27;99780;;;
74485;BMP280;62942;52.462;10.846;2022-12-31T01:58:38;99770;;;
74485;BMP280;62942;52.462;10.846;2022-12-31T01:59:37;99760;;;
74485;BMP280;62942;52.462;10.846;2022-12-31T02:00:37;99780;;;
74485;BMP280;62942;52.462;10.846;2022-12-31T02:01:47;99780;;;
74485;BMP280;62942;52.462;10.846;2022-12-31T02:02:47;99780;;;
74485;BMP280;62942;52.462;10.846;2022-12-31T02:03:57;99780;;;
74485;BMP280;62942;52.462;10.846;2022-12-31T02:05:10;99780;;;
74485;BMP280;62942;52.462;10.846;2022-12-31T02:06:19;99780;;;
74485;BMP280;62942;52.462;10.846;2022-12-31T02:07:27;99770;;;
74485;BMP280;62942;52.462;10.846;2022-12-31T02:08:27;99780;;;
74485;BMP280;62942;52.462;10.846;2022-12-31T02:09:27;99770;;;
74485;BMP280;62942;52.462;10.846;2022-12-31T02:10:37;99770;;;
74485;BMP280;62942;52.462;10.846;2022-12-31T02:11:47;99770;;;
74485;BMP280;62942;52.462;10.846;2022-12-31T02:12:47;99760;;;
74485;BMP280;62942;52.462;10.846;2022-12-31T02:13:47;99760;;;
74485;BMP280;62942;52.462;10.846;2022-12-31T02:14:48;99750;;;
74485;BMP280;62942;52.462;10.846;2022-12-31T02:15:58;99760;;;
74485;BMP280;62942;52.462;10.846;2022-12-31T02:16:58;99760;;;
74485;BMP280;62942;52.462;10.846;2022-12-31T02:17:59;99760;;;
74485;BMP280;62942;52.462;10.846;2022-12-31T02:19:16;99760;;;
74485;BMP280;62942;52.462;10.846;2022-12-31T02:20:25;99750;;;
74485;BMP280;62942;52.462;10.846;2022-12-31T02:21:45;99750;;;
74485;BMP280;62942;52.462;10.846;2022-12-31T02:22:43;99750;;;
74485;BMP280;62942;52.462;10.846;2022-12-31T02:23:44;99750;;;
74485;BMP280;62942;52.462;10.846;2022-12-31T02:24:55;99750;;;
74485;BMP280;62942;52.462;10.846;2022-12-31T02:26:03;99740;;;
74485;BMP280;62942;52.462;10.846;2022-12-31T02:26:58;99760;;;
74485;BMP280;62942;52.462;10.846;2022-12-31T02:28:12;99760;;;
74485;BMP280;62942;52.462;10.846;2022-12-31T02:30:22;99760;;;
74485;BMP280;62942;52.462;10.846;2022-12-31T02:30:27;99770;;;
74485;BMP280;62942;52.462;10.846;2022-12-31T02:31:28;99760;;;
74485;BMP280;62942;52.462;10.846;2022-12-31T02:32:43;99760;;;
74485;BMP280;62942;52.462;10.846;2022-12-31T02:33:49;99760;;;
74485;BMP280;62942;52.462;10.846;2022-12-31T02:34:49;99760;;;
74485;BMP280;62942;52.462;10.846;2022-12-31T02:35:58;99760;;;
74485;BMP280;62942;52.462;10.846;2022-12-31T02:37:08;99760;;;
74485;BMP280;62942;52.462;10.846;2022-12-31T02:38:18;99770;;;
74485;BMP280;62942;52.462;10.846;2022-12-31T02:39:27;99750;;;
74485;BMP280;62942;52.462;10.846;2022-12-31T02:40:37;99750;;;
74485;BMP280;62942;52.462;10.846;2022-12-31T02:41:47;99750;;;
74485;BMP280;62942;52.462;10.846;2022-12-31T02:42:57;99760;;;
74485;BMP280;62942;52.462;10.846;2022-12-31T02:44:18;99750;;;
74485;BMP280;62942;52.462;10.846;2022-12-31T02:45:18;99760;;;
74485;BMP280;62942;52.462;10.846;2022-12-31T02:46:29;99750;;;
74485;BMP280;62942;52.462;10.846;2022-12-31T02:47:40;99740;;;
74485;BMP280;62942;52.462;10.846;2022-12-31T02:48:38;99750;;;
74485;BMP280;62942;52.462;10.846;2022-12-31T02:49:50;99750;;;
74485;BMP280;62942;52.462;10.846;2022-12-31T02:50:59;99740;;;
74485;BMP280;62942;52.462;10.846;2022-12-31T02:52:09;99740;;;
74485;BMP280;62942;52.462;10.846;2022-12-31T02:53:19;99740;;;
74485;BMP280;62942;52.462;10.846;2022-12-31T02:54:28;99740;;;
74485;BMP280;62942;52.462;10.846;2022-12-31T02:55:38;99730;;;
74485;BMP280;62942;52.462;10.846;2022-12-31T02:56:50;99730;;;
74485;BMP280;62942;52.462;10.846;2022-12-31T02:57:48;99730;;;
74485;BMP280;62942;52.462;10.846;2022-12-31T02:58:59;99730;;;
74485;BMP280;62942;52.462;10.846;2022-12-31T03:00:08;99720;;;
74485;BMP280;62942;52.462;10.846;2022-12-31T03:01:19;99710;;;
74485;BMP280;62942;52.462;10.846;2022-12-31T03:02:27;99720;;;
74485;BMP280;62942;52.462;10.846;2022-12-31T03:03:37;99710;;;
74485;BMP280;62942;52.462;10.846;2022-12-31T03:04:48;99710;;;
74485;BMP280;62942;52.462;10.846;2022-12-31T03:05:47;99700;;;
74485;BMP280;62942;52.462;10.846;2022-12-31T03:06:58;99690;;;
74485;BMP280;62942;52.462;10.846;2022-12-31T03:08:07;99680;;;
74485;BMP280;62942;52.462;10.846;2022-12-31T03:09:17;99710;;;
74485;BMP280;62942;52.462;10.846;2022-12-31T03:10:27;99690;;;
74485;BMP280;62942;52.462;10.846;2022-12-31T03:11:27;99700;;;
74485;BMP280;62942;52.462;10.846;2022-12-31T03:12:37;99700;;;
74485;BMP280;62942;52.462;10.846;2022-12-31T03:13:37;99700;;;
74485;BMP280;62942;52.462;10.846;2022-12-31T03:14:37;99700;;;
74485;BMP280;62942;52.462;10.846;2022-12-31T03:15:47;99700;;;
74485;BMP280;62942;52.462;10.846;2022-12-31T03:16:57;99710;;;
74485;BMP280;62942;52.462;10.846;2022-12-31T03:18:08;99700;;;
74485;BMP280;62942;52.462;10.846;2022-12-31T03:19:17;99700;;;
74485;BMP280;62942;52.462;10.846;2022-12-31T03:20:28;99700;;;
74485;BMP280;62942;52.462;10.846;2022-12-31T03:21:37;99700;;;
74485;BMP280;62942;52.462;10.846;2022-12-31T03:22:47;99710;;;
74485;BMP280;62942;52.462;10.846;2022-12-31T03:23:57;99710;;;
74485;BMP280;62942;52.462;10.846;2022-12-31T03:25:08;99700;;;
74485;BMP280;62942;52.462;10.846;2022-12-31T03:26:08;99700;;;
74485;BMP280;62942;52.462;10.846;2022-12-31T03:27:17;99700;;;
74485;BMP280;62942;52.462;10.846;2022-12-31T03:28:28;99700;;;
74485;BMP280;62942;52.462;10.846;2022-12-31T03:29:37;99690;;;
74485;BMP280;62942;52.462;10.846;2022-12-31T03:30:48;99700;;;
74485;BMP280;62942;52.462;10.846;2022-12-31T03:31:57;99700;;;
74485;BMP280;62942;52.462;10.846;2022-12-31T03:32:57;99700;;;
74485;BMP280;62942;52.462;10.846;2022-12-31T03:33:57;99700;;;
74485;BMP280;62942;52.462;10.846;2022-12-31T03:35:07;99700;;;
74485;BMP280;62942;52.462;10.846;2022-12-31T03:36:17;99700;;;
74485;BMP280;62942;52.462;10.846;2022-12-31T03:37:27;99700;;;
74485;BMP280;62942;52.462;10.846;2022-12-31T03:38:37;99700;;;
74485;BMP280;62942;52.462;10.846;2022-12-31T03:39:47;99700;;;
74485;BMP280;62942;52.462;10.846;2022-12-31T03:40:57;99700;;;
74485;BMP280;62942;52.462;10.846;2022-12-31T03:42:07;99700;;;
74485;BMP280;62942;52.462;10.846;2022-12-31T03:43:17;99700;;;
74485;BMP280;62942;52.462;10.846;2022-12-31T03:44:17;99700;;;
74485;BMP280;62942;52.462;10.846;2022-12-31T03:45:17;99700;;;
74485;BMP280;62942;52.462;10.846;2022-12-31T03:46:27;99690;;;
74485;BMP280;62942;52.462;10.846;2022-12-31T03:47:37;99700;;;
74485;BMP280;62942;52.462;10.846;2022-12-31T03:48:37;99690;;;
74485;BMP280;62942;52.462;10.846;2022-12-31T03:49:47;99700;;;
74485;BMP280;62942;52.462;10.846;2022-12-31T03:50:47;99700;;;
74485;BMP280;62942;52.462;10.846;2022-12-31T03:51:57;99700;;;
74485;BMP280;62942;52.462;10.846;2022-12-31T03:53:07;99700;;;
74485;BMP280;62942;52.462;10.846;2022-12-31T03:54:07;99700;;;
74485;BMP280;62942;52.462;10.846;2022-12-31T03:55:08;99690;;;
74485;BMP280;62942;52.462;10.846;2022-12-31T03:56:17;99690;;;
74485;BMP280;62942;52.462;10.846;2022-12-31T03:57:27;99680;;;
74485;BMP280;62942;52.462;10.846;2022-12-31T03:58:37;99670;;;
74485;BMP280;62942;52.462;10.846;2022-12-31T03:59:37;99680;;;
74485;BMP280;62942;52.462;10.846;2022-12-31T04:00:37;99680;;;
74485;BMP280;62942;52.462;10.846;2022-12-31T04:01:47;99690;;;
74485;BMP280;62942;52.462;10.846;2022-12-31T04:02:57;99700;;;
74485;BMP280;62942;52.462;10.846;2022-12-31T04:04:07;99710;;;
74485;BMP280;62942;52.462;10.846;2022-12-31T04:05:07;99710;;;
74485;BMP280;62942;52.462;10.846;2022-12-31T04:06:17;99710;;;
74485;BMP280;62942;52.462;10.846;2022-12-31T04:07:27;99710;;;
74485;BMP280;62942;52.462;10.846;2022-12-31T04:08:27;99720;;;
74485;BMP280;62942;52.462;10.846;2022-12-31T04:09:37;99720;;;
74485;BMP280;62942;52.462;10.846;2022-12-31T04:10:37;99710;;;
74485;BMP280;62942;52.462;10.846;2022-12-31T04:11:47;99710;;;
74485;BMP280;62942;52.462;10.846;2022-12-31T04:12:47;99710;;;
74485;BMP280;62942;52.462;10.846;2022-12-31T04:13:57;99710;;;
74485;BMP280;62942;52.462;10.846;2022-12-31T04:15:07;99710;;;
74485;BMP280;62942;52.462;10.846;2022-12-31T04:16:17;99710;;;
74485;BMP280;62942;52.462;10.846;2022-12-31T04:17:27;99700;;;
74485;BMP280;62942;52.462;10.846;2022-12-31T04:18:37;99690;;;
74485;BMP280;62942;52.462;10.846;2022-12-31T04:19:37;99690;;;
74485;BMP280;62942;52.462;10.846;2022-12-31T04:20:47;99690;;;
74485;BMP280;62942;52.462;10.846;2022-12-31T04:21:57;99680;;;
74485;BMP280;62942;52.462;10.846;2022-12-31T04:23:07;99680;;;
74485;BMP280;62942;52.462;10.846;2022-12-31T04:24:17;99680;;;
74485;BMP280;62942;52.462;10.846;2022-12-31T04:25:27;99670;;;
74485;BMP280;62942;52.462;10.846;2022-12-31T04:26:37;99660;;;
74485;BMP280;62942;52.462;10.846;2022-12-31T04:27:47;99670;;;
74485;BMP280;62942;52.462;10.846;2022-12-31T04:28:57;99660;;;
74485;BMP280;62942;52.462;10.846;2022-12-31T04:30:11;99660;;;
74485;BMP280;62942;52.462;10.846;2022-12-31T04:31:17;99660;;;
74485;BMP280;62942;52.462;10.846;2022-12-31T04:32:27;99660;;;
74485;BMP280;62942;52.462;10.846;2022-12-31T04:33:37;99650;;;
74485;BMP280;62942;52.462;10.846;2022-12-31T04:34:37;99650;;;
74485;BMP280;62942;52.462;10.846;2022-12-31T04:35:37;99650;;;
74485;BMP280;62942;52.462;10.846;2022-12-31T04:36:47;99650;;;
74485;BMP280;62942;52.462;10.846;2022-12-31T04:37:47;99650;;;
74485;BMP280;62942;52.462;10.846;2022-12-31T04:38:47;99650;;;
74485;BMP280;62942;52.462;10.846;2022-12-31T04:39:57;99650;;;
74485;BMP280;62942;52.462;10.846;2022-12-31T04:41:07;99650;;;
74485;BMP280;62942;52.462;10.846;2022-12-31T04:42:07;99650;;;
74485;BMP280;62942;52.462;10.846;2022-12-31T04:43:17;99640;;;
74485;BMP280;62942;52.462;10.846;2022-12-31T04:44:17;99640;;;
74485;BMP280;62942;52.462;10.846;2022-12-31T04:45:17;99650;;;
74485;BMP280;62942;52.462;10.846;2022-12-31T04:46:27;99640;;;
74485;BMP280;62942;52.462;10.846;2022-12-31T04:47:27;99650;;;
74485;BMP280;62942;52.462;10.846;2022-12-31T04:48:27;99650;;;
74485;BMP280;62942;52.462;10.846;2022-12-31T04:49:27;99650;;;
74485;BMP280;62942;52.462;10.846;2022-12-31T04:50:27;99640;;;
74485;BMP280;62942;52.462;10.846;2022-12-31T04:51:37;99640;;;
74485;BMP280;62942;52.462;10.846;2022-12-31T04:52:47;99640;;;
74485;BMP280;62942;52.462;10.846;2022-12-31T04:53:47;99640;;;
74485;BMP280;62942;52.462;10.846;2022-12-31T04:54:47;99640;;;
74485;BMP280;62942;52.462;10.846;2022-12-31T04:55:57;99630;;;
74485;BMP280;62942;52.462;10.846;2022-12-31T04:57:07;99640;;;
74485;BMP280;62942;52.462;10.846;2022-12-31T04:58:17;99640;;;
74485;BMP280;62942;52.462;10.846;2022-12-31T04:59:27;99640;;;
74485;BMP280;62942;52.462;10.846;2022-12-31T05:00:37;99640;;;
74485;BMP280;62942;52.462;10.846;2022-12-31T05:01:47;99640;;;
74485;BMP280;62942;52.462;10.846;2022-12-31T05:02:47;99640;;;
74485;BMP280;62942;52.462;10.846;2022-12-31T05:03:57;99640;;;
74485;BMP280;62942;52.462;10.846;2022-12-31T05:05:07;99630;;;
74485;BMP280;62942;52.462;10.846;2022-12-31T05:06:08;99630;;;
74485;BMP280;62942;52.462;10.846;2022-12-31T05:07:17;99620;;;
74485;BMP280;62942;52.462;10.846;2022-12-31T05:08:27;99630;;;
74485;BMP280;62942;52.462;10.846;2022-12-31T05:09:37;99620;;;
74485;BMP280;62942;52.462;10.846;2022-12-31T05:10:47;99620;;;
74485;BMP280;62942;52.462;10.846;2022-12-31T05:11:57;99610;;;
74485;BMP280;62942;52.462;10.846;2022-12-31T05:13:07;99610;;;
74485;BMP280;62942;52.462;10.846;2022-12-31T05:14:09;99600;;;
74485;BMP280;62942;52.462;10.846;2022-12-31T05:15:17;99610;;;
74485;BMP280;62942;52.462;10.846;2022-12-31T05:16:17;99600;;;
74485;BMP280;62942;52.462;10.846;2022-12-31T05:17:27;99600;;;
74485;BMP280;62942;52.462;10.846;2022-12-31T05:18:27;99610;;;
74485;BMP280;62942;52.462;10.846;2022-12-31T05:19:37;99600;;;
74485;BMP280;62942;52.462;10.846;2022-12-31T05:20:47;99590;;;
74485;BMP280;62942;52.462;10.846;2022-12-31T05:21:57;99590;;;
74485;BMP280;62942;52.462;10.846;2022-12-31T05:23:07;99590;;;
74485;BMP280;62942;52.462;10.846;2022-12-31T05:24:18;99590;;;
74485;BMP280;62942;52.462;10.846;2022-12-31T05:25:27;99580;;;
74485;BMP280;62942;52.462;10.846;2022-12-31T05:26:37;99580;;;
74485;BMP280;62942;52.462;10.846;2022-12-31T05:27:37;99580;;;
74485;BMP280;62942;52.462;10.846;2022-12-31T05:28:47;99570;;;
74485;BMP280;62942;52.462;10.846;2022-12-31T05:29:47;99580;;;
74485;BMP280;62942;52.462;10.846;2022-12-31T05:30:57;99580;;;
74485;BMP280;62942;52.462;10.846;2022-12-31T05:31:57;99580;;;
74485;BMP280;62942;52.462;10.846;2022-12-31T05:33:07;99580;;;
74485;BMP280;62942;52.462;10.846;2022-12-31T05:34:17;99580;;;
74485;BMP280;62942;52.462;10.846;2022-12-31T05:35:27;99580;;;
74485;BMP280;62942;52.462;10.846;2022-12-31T05:36:37;99580;;;
74485;BMP280;62942;52.462;10.846;2022-12-31T05:37:47;99580;;;
74485;BMP280;62942;52.462;10.846;2022-12-31T05:38:47;99580;;;
74485;BMP280;62942;52.462;10.846;2022-12-31T05:39:47;99570;;;
74485;BMP280;62942;52.462;10.846;2022-12-31T05:40:57;99580;;;
74485;BMP280;62942;52.462;10.846;2022-12-31T05:42:07;99580;;;
74485;BMP280;62942;52.462;10.846;2022-12-31T05:43:07;99590;;;
74485;BMP280;62942;52.462;10.846;2022-12-31T05:44:17;99580;;;
74485;BMP280;62942;52.462;10.846;2022-12-31T05:45:27;99590;;;
74485;BMP280;62942;52.462;10.846;2022-12-31T05:46:37;99590;;;
74485;BMP280;62942;52.462;10.846;2022-12-31T05:47:47;99590;;;
74485;BMP280;62942;52.462;10.846;2022-12-31T05:48:57;99600;;;
74485;BMP280;62942;52.462;10.846;2022-12-31T05:50:07;99610;;;
74485;BMP280;62942;52.462;10.846;2022-12-31T05:51:17;99610;;;
74485;BMP280;62942;52.462;10.846;2022-12-31T05:52:17;99620;;;
74485;BMP280;62942;52.462;10.846;2022-12-31T05:53:27;99620;;;
74485;BMP280;62942;52.462;10.846;2022-12-31T05:54:37;99630;;;
74485;BMP280;62942;52.462;10.846;2022-12-31T05:55:37;99630;;;
74485;BMP280;62942;52.462;10.846;2022-12-31T05:56:47;99640;;;
74485;BMP280;62942;52.462;10.846;2022-12-31T05:57:57;99640;;;
74485;BMP280;62942;52.462;10.846;2022-12-31T05:58:57;99660;;;
74485;BMP280;62942;52.462;10.846;2022-12-31T06:00:07;99670;;;
74485;BMP280;62942;52.462;10.846;2022-12-31T06:01:17;99680;;;
74485;BMP280;62942;52.462;10.846;2022-12-31T06:02:17;99680;;;
74485;BMP280;62942;52.462;10.846;2022-12-31T06:03:27;99680;;;
74485;BMP280;62942;52.462;10.846;2022-12-31T06:04:37;99680;;;
74485;BMP280;62942;52.462;10.846;2022-12-31T06:05:47;99680;;;
74485;BMP280;62942;52.462;10.846;2022-12-31T06:06:47;99680;;;
74485;BMP280;62942;52.462;10.846;2022-12-31T06:07:57;99680;;;
74485;BMP280;62942;52.462;10.846;2022-12-31T06:08:57;99680;;;
74485;BMP280;62942;52.462;10.846;2022-12-31T06:10:07;99680;;;
74485;BMP280;62942;52.462;10.846;2022-12-31T06:11:17;99680;;;
74485;BMP280;62942;52.462;10.846;2022-12-31T06:12:17;99690;;;
74485;BMP280;62942;52.462;10.846;2022-12-31T06:13:17;99690;;;
74485;BMP280;62942;52.462;10.846;2022-12-31T06:14:27;99690;;;
74485;BMP280;62942;52.462;10.846;2022-12-31T06:15:37;99690;;;
74485;BMP280;62942;52.462;10.846;2022-12-31T06:16:37;99690;;;
74485;BMP280;62942;52.462;10.846;2022-12-31T06:17:47;99690;;;
74485;BMP280;62942;52.462;10.846;2022-12-31T06:18:47;99690;;;
74485;BMP280;62942;52.462;10.846;2022-12-31T06:19:57;99690;;;
74485;BMP280;62942;52.462;10.846;2022-12-31T06:21:07;99690;;;
74485;BMP280;62942;52.462;10.846;2022-12-31T06:22:07;99690;;;
74485;BMP280;62942;52.462;10.846;2022-12-31T06:23:07;99690;;;
74485;BMP280;62942;52.462;10.846;2022-12-31T06:24:17;99700;;;
74485;BMP280;62942;52.462;10.846;2022-12-31T06:25:27;99700;;;
74485;BMP280;62942;52.462;10.846;2022-12-31T06:26:37;99700;;;
74485;BMP280;62942;52.462;10.846;2022-12-31T06:27:47;99700;;;
74485;BMP280;62942;52.462;10.846;2022-12-31T06:28:57;99700;;;
74485;BMP280;62942;52.462;10.846;2022-12-31T06:30:07;99700;;;
74485;BMP280;62942;52.462;10.846;2022-12-31T06:31:17;99710;;;
74485;BMP280;62942;52.462;10.846;2022-12-31T06:32:27;99710;;;
74485;BMP280;62942;52.462;10.846;2022-12-31T06:33:37;99710;;;
74485;BMP280;62942;52.462;10.846;2022-12-31T06:34:47;99710;;;
74485;BMP280;62942;52.462;10.846;2022-12-31T06:35:58;99710;;;
74485;BMP280;62942;52.462;10.846;2022-12-31T06:37:07;99710;;;
74485;BMP280;62942;52.462;10.846;2022-12-31T06:38:17;99710;;;
74485;BMP280;62942;52.462;10.846;2022-12-31T06:39:27;99720;;;
74485;BMP280;62942;52.462;10.846;2022-12-31T06:40:37;99730;;;
74485;BMP280;62942;52.462;10.846;2022-12-31T06:41:37;99730;;;
74485;BMP280;62942;52.462;10.846;2022-12-31T06:42:47;99730;;;
74485;BMP280;62942;52.462;10.846;2022-12-31T06:43:57;99720;;;
74485;BMP280;62942;52.462;10.846;2022-12-31T06:44:57;99720;;;
74485;BMP280;62942;52.462;10.846;2022-12-31T06:46:08;99720;;;
74485;BMP280;62942;52.462;10.846;2022-12-31T06:47:17;99730;;;
74485;BMP280;62942;52.462;10.846;2022-12-31T06:48:17;99730;;;
74485;BMP280;62942;52.462;10.846;2022-12-31T06:49:27;99730;;;
74485;BMP280;62942;52.462;10.846;2022-12-31T06:50:37;99730;;;
74485;BMP280;62942;52.462;10.846;2022-12-31T06:51:37;99740;;;
74485;BMP280;62942;52.462;10.846;2022-12-31T06:52:47;99750;;;
74485;BMP280;62942;52.462;10.846;2022-12-31T06:53:57;99750;;;
74485;BMP280;62942;52.462;10.846;2022-12-31T06:55:07;99740;;;
74485;BMP280;62942;52.462;10.846;2022-12-31T06:56:07;99720;;;
74485;BMP280;62942;52.462;10.846;2022-12-31T06:57:17;99740;;;
74485;BMP280;62942;52.462;10.846;2022-12-31T06:58:27;99740;;;
74485;BMP280;62942;52.462;10.846;2022-12-31T06:59:37;99730;;;
74485;BMP280;62942;52.462;10.846;2022-12-31T07:00:37;99740;;;
74485;BMP280;62942;52.462;10.846;2022-12-31T07:01:48;99740;;;
74485;BMP280;62942;52.462;10.846;2022-12-31T07:02:52;99750;;;
74485;BMP280;62942;52.462;10.846;2022-12-31T07:03:58;99750;;;
74485;BMP280;62942;52.462;10.846;2022-12-31T07:05:01;99750;;;
74485;BMP280;62942;52.462;10.846;2022-12-31T07:05:57;99760;;;